Time;durP1;ratioP1;P1;durP2;ratioP2;P2;SDS_P1;SDS_P2;PMS_P1;PMS_P2;Temp;Humidity;BMP_temperature;BMP_pressure;BME280_temperature;BME280_humidity;BME280_pressure;Samples;Min_cycle;Max_cycle;Signal;HPM_P1;HPM_P2
2021/08/13 00:00:27;;;;;;;7.43;5.45;;;;;;;;;;5027611;28;20503;-57
2021/08/13 00:02:53;;;;;;;6.72;5.40;;;;;;;;;;5023818;28;20647;-57
2021/08/13 00:05:18;;;;;;;9.00;6.63;;;;;;;;;;5031075;28;20224;-57
2021/08/13 00:07:43;;;;;;;10.95;5.65;;;;;;;;;;5038406;28;20496;-58
2021/08/13 00:10:09;;;;;;;10.77;5.93;;;;;;;;;;5028341;28;20176;-57
2021/08/13 00:12:34;;;;;;;10.90;5.68;;;;;;;;;;5031489;28;20729;-57
2021/08/13 00:14:59;;;;;;;7.45;6.03;;;;;;;;;;5010155;28;20198;-57
2021/08/13 00:17:25;;;;;;;9.45;5.05;;;;;;;;;;5012430;28;20187;-57
2021/08/13 00:19:50;;;;;;;8.10;5.55;;;;;;;;;;5022513;28;20238;-56
2021/08/13 00:22:15;;;;;;;11.23;5.53;;;;;;;;;;5036344;28;20182;-57
2021/08/13 00:24:41;;;;;;;11.35;5.47;;;;;;;;;;5007290;28;20253;-57
2021/08/13 00:27:06;;;;;;;11.65;5.43;;;;;;;;;;5023352;28;20179;-57
2021/08/13 00:29:31;;;;;;;6.45;5.28;;;;;;;;;;5015571;28;20178;-57
2021/08/13 00:31:56;;;;;;;7.53;5.45;;;;;;;;;;5022975;28;20189;-57
2021/08/13 00:34:22;;;;;;;5.57;4.97;;;;;;;;;;5026013;28;21054;-57
2021/08/13 00:36:47;;;;;;;7.75;5.10;;;;;;;;;;5011915;28;20521;-57
2021/08/13 00:39:12;;;;;;;6.68;5.50;;;;;;;;;;5025867;28;20221;-58
2021/08/13 00:41:37;;;;;;;10.25;5.20;;;;;;;;;;5024865;28;20374;-57
2021/08/13 00:44:02;;;;;;;12.93;5.35;;;;;;;;;;5025252;28;20203;-57
2021/08/13 00:46:27;;;;;;;9.48;5.30;;;;;;;;;;5010584;28;20183;-57
2021/08/13 00:48:53;;;;;;;7.77;5.20;;;;;;;;;;5042930;28;20611;-58
2021/08/13 00:51:18;;;;;;;12.25;5.43;;;;;;;;;;5031734;28;20432;-57
2021/08/13 00:53:43;;;;;;;6.13;5.40;;;;;;;;;;5030548;28;20618;-57
2021/08/13 00:56:10;;;;;;;13.00;5.57;;;;;;;;;;5026375;28;20183;-57
2021/08/13 00:58:36;;;;;;;9.60;5.25;;;;;;;;;;5022700;28;20265;-57
2021/08/13 01:01:01;;;;;;;11.40;5.25;;;;;;;;;;5018804;28;20269;-57
2021/08/13 01:03:26;;;;;;;8.55;4.82;;;;;;;;;;5004164;28;20658;-57
2021/08/13 01:05:51;;;;;;;9.88;5.32;;;;;;;;;;5033801;28;20205;-57
2021/08/13 01:08:16;;;;;;;9.95;5.60;;;;;;;;;;5025969;28;20182;-57
2021/08/13 01:10:46;;;;;;;11.10;5.22;;;;;;;;;;5015862;28;20187;-57
2021/08/13 01:13:12;;;;;;;10.38;5.40;;;;;;;;;;5008577;28;20190;-58
2021/08/13 01:15:41;;;;;;;8.38;5.25;;;;;;;;;;5023145;28;20277;-57
2021/08/13 01:18:15;;;;;;;6.50;5.25;;;;;;;;;;5019037;28;20191;-57
2021/08/13 01:21:00;;;;;;;7.13;5.18;;;;;;;;;;5023102;28;20206;-58
2021/08/13 01:23:29;;;;;;;6.82;5.15;;;;;;;;;;5032134;28;20177;-58
2021/08/13 01:25:56;;;;;;;6.75;4.78;;;;;;;;;;5023419;28;20229;-57
2021/08/13 01:28:36;;;;;;;10.68;5.45;;;;;;;;;;5026320;28;20179;-57
2021/08/13 01:31:06;;;;;;;8.88;5.00;;;;;;;;;;5012933;28;20662;-58
2021/08/13 01:33:31;;;;;;;7.65;5.40;;;;;;;;;;4991714;28;20183;-58
2021/08/13 01:35:59;;;;;;;10.43;5.32;;;;;;;;;;5004422;28;20213;-58
2021/08/13 01:38:26;;;;;;;10.10;4.97;;;;;;;;;;5031191;28;20191;-57
2021/08/13 01:40:54;;;;;;;7.95;5.82;;;;;;;;;;5012902;28;20210;-57
2021/08/13 01:43:20;;;;;;;12.20;5.40;;;;;;;;;;5019691;28;20179;-57
2021/08/13 01:45:45;;;;;;;7.50;5.60;;;;;;;;;;5024544;28;20685;-56
2021/08/13 01:48:11;;;;;;;6.43;5.22;;;;;;;;;;5026876;28;20193;-57
2021/08/13 01:50:37;;;;;;;7.95;5.75;;;;;;;;;;5019516;28;20190;-56
2021/08/13 01:53:03;;;;;;;9.05;5.55;;;;;;;;;;5021839;28;20252;-58
2021/08/13 01:55:29;;;;;;;9.50;6.13;;;;;;;;;;5032744;28;20217;-57
2021/08/13 01:57:55;;;;;;;11.35;5.65;;;;;;;;;;5028247;28;20187;-57
2021/08/13 02:00:21;;;;;;;9.70;5.80;;;;;;;;;;5028554;28;20218;-57
2021/08/13 02:02:47;;;;;;;11.13;6.65;;;;;;;;;;5013152;28;20934;-57
2021/08/13 02:05:15;;;;;;;6.97;5.47;;;;;;;;;;5026264;28;20202;-57
2021/08/13 02:07:41;;;;;;;9.95;5.72;;;;;;;;;;5030156;28;20241;-57
2021/08/13 02:10:08;;;;;;;10.00;5.75;;;;;;;;;;5026224;28;20873;-57
2021/08/13 02:12:33;;;;;;;7.80;5.50;;;;;;;;;;5029615;28;20270;-58
2021/08/13 02:14:58;;;;;;;7.85;5.93;;;;;;;;;;5028101;28;20353;-57
2021/08/13 02:17:24;;;;;;;12.95;6.18;;;;;;;;;;5022358;28;20218;-57
2021/08/13 02:19:58;;;;;;;9.00;5.75;;;;;;;;;;5017796;28;20206;-57
2021/08/13 02:22:23;;;;;;;9.55;5.65;;;;;;;;;;5029418;28;20183;-57
2021/08/13 02:24:49;;;;;;;8.15;5.78;;;;;;;;;;5011777;28;20800;-57
2021/08/13 02:27:14;;;;;;;7.10;6.25;;;;;;;;;;5031112;28;20185;-58
2021/08/13 02:29:40;;;;;;;8.85;6.22;;;;;;;;;;5025611;28;20199;-57
2021/08/13 02:32:05;;;;;;;7.47;5.80;;;;;;;;;;5016494;28;20279;-57
2021/08/13 02:34:31;;;;;;;8.07;6.18;;;;;;;;;;5017294;28;20286;-57
2021/08/13 02:37:10;;;;;;;7.38;6.35;;;;;;;;;;5029577;28;20651;-57
2021/08/13 02:39:40;;;;;;;9.88;6.43;;;;;;;;;;5032115;28;20202;-57
2021/08/13 02:42:07;;;;;;;7.97;5.85;;;;;;;;;;5014348;28;20194;-57
2021/08/13 02:44:34;;;;;;;8.52;6.78;;;;;;;;;;5012546;28;20202;-57
2021/08/13 02:47:00;;;;;;;9.23;6.70;;;;;;;;;;5027838;28;20596;-57
2021/08/13 02:49:27;;;;;;;10.80;6.50;;;;;;;;;;5026758;28;20219;-57
2021/08/13 02:51:54;;;;;;;7.20;5.90;;;;;;;;;;5024382;28;20184;-57
2021/08/13 02:54:24;;;;;;;6.65;6.00;;;;;;;;;;5041318;28;20198;-57
2021/08/13 02:56:50;;;;;;;8.35;6.43;;;;;;;;;;5026394;28;20194;-57
2021/08/13 02:59:17;;;;;;;10.20;5.88;;;;;;;;;;5007874;28;20210;-58
2021/08/13 03:01:42;;;;;;;6.93;6.00;;;;;;;;;;5029080;28;20277;-57
2021/08/13 03:04:09;;;;;;;9.30;7.40;;;;;;;;;;5013023;28;20278;-57
2021/08/13 03:06:36;;;;;;;12.48;7.13;;;;;;;;;;5034223;28;20182;-59
2021/08/13 03:09:02;;;;;;;11.02;6.55;;;;;;;;;;5030719;28;20244;-57
2021/08/13 03:11:27;;;;;;;9.43;6.13;;;;;;;;;;5029116;28;20822;-57
2021/08/13 03:13:53;;;;;;;7.10;5.78;;;;;;;;;;5029283;28;20194;-57
2021/08/13 03:16:18;;;;;;;7.07;5.70;;;;;;;;;;5023830;28;20187;-57
2021/08/13 03:18:44;;;;;;;8.07;5.60;;;;;;;;;;5022482;28;20191;-57
2021/08/13 03:21:10;;;;;;;6.85;5.65;;;;;;;;;;5026064;28;20187;-57
2021/08/13 03:23:36;;;;;;;9.10;5.70;;;;;;;;;;5019261;28;20191;-57
2021/08/13 03:26:02;;;;;;;6.75;5.40;;;;;;;;;;5017101;28;20193;-57
2021/08/13 03:28:27;;;;;;;6.90;6.20;;;;;;;;;;5018731;28;20179;-57
2021/08/13 03:30:52;;;;;;;8.35;5.65;;;;;;;;;;5029726;28;20405;-58
2021/08/13 03:33:17;;;;;;;7.82;6.60;;;;;;;;;;4993609;28;20176;-57
2021/08/13 03:35:43;;;;;;;7.82;5.47;;;;;;;;;;5018992;28;20724;-57
2021/08/13 03:38:09;;;;;;;7.75;6.15;;;;;;;;;;5030165;28;20182;-57
2021/08/13 03:40:35;;;;;;;15.93;5.65;;;;;;;;;;5028509;28;20230;-58
2021/08/13 03:43:00;;;;;;;6.07;5.53;;;;;;;;;;5021753;28;20193;-57
2021/08/13 03:45:25;;;;;;;8.07;6.43;;;;;;;;;;5025381;28;20210;-57
2021/08/13 03:47:50;;;;;;;12.02;6.32;;;;;;;;;;5021767;28;20187;-57
2021/08/13 03:50:15;;;;;;;8.40;6.97;;;;;;;;;;5018021;28;20195;-57
2021/08/13 03:52:41;;;;;;;6.53;5.60;;;;;;;;;;5016669;28;20273;-56
2021/08/13 03:55:06;;;;;;;9.02;7.43;;;;;;;;;;5016139;28;20222;-56
2021/08/13 03:57:31;;;;;;;8.85;6.72;;;;;;;;;;5008203;28;20183;-57
2021/08/13 03:59:57;;;;;;;7.40;6.53;;;;;;;;;;5025637;28;20285;-57
2021/08/13 04:02:22;;;;;;;9.35;7.32;;;;;;;;;;5032285;28;20195;-57
2021/08/13 04:04:47;;;;;;;10.00;7.70;;;;;;;;;;5033892;28;20198;-57
2021/08/13 04:07:12;;;;;;;10.80;8.20;;;;;;;;;;5032186;28;20182;-57
2021/08/13 04:09:37;;;;;;;9.70;7.70;;;;;;;;;;5027022;28;20562;-56
2021/08/13 04:12:03;;;;;;;13.77;8.73;;;;;;;;;;4999209;28;20187;-57
2021/08/13 04:14:28;;;;;;;12.63;8.53;;;;;;;;;;5010048;28;20203;-56
2021/08/13 04:16:53;;;;;;;12.90;8.70;;;;;;;;;;5017135;28;20213;-57
2021/08/13 04:19:18;;;;;;;10.70;9.40;;;;;;;;;;5014945;28;20226;-58
2021/08/13 04:21:43;;;;;;;9.70;8.70;;;;;;;;;;5016745;28;20195;-57
2021/08/13 04:24:09;;;;;;;10.07;9.03;;;;;;;;;;5033157;28;20209;-57
2021/08/13 04:26:34;;;;;;;9.97;8.43;;;;;;;;;;5018551;28;20214;-57
2021/08/13 04:28:59;;;;;;;12.10;8.80;;;;;;;;;;5018308;28;20614;-57
2021/08/13 04:31:24;;;;;;;11.13;8.43;;;;;;;;;;5013802;28;20184;-57
2021/08/13 04:33:49;;;;;;;13.35;8.52;;;;;;;;;;5027642;28;20257;-57
2021/08/13 04:36:15;;;;;;;9.25;7.70;;;;;;;;;;5003708;28;20211;-57
2021/08/13 04:38:40;;;;;;;15.13;6.85;;;;;;;;;;5030753;28;20237;-57
2021/08/13 04:41:05;;;;;;;10.48;6.43;;;;;;;;;;5016974;28;20257;-57
2021/08/13 04:43:30;;;;;;;8.02;6.90;;;;;;;;;;5026235;28;20171;-57
2021/08/13 04:45:55;;;;;;;11.32;7.65;;;;;;;;;;5008166;28;20191;-56
2021/08/13 04:48:21;;;;;;;7.78;6.97;;;;;;;;;;5017128;28;20183;-56
2021/08/13 04:50:46;;;;;;;8.50;7.07;;;;;;;;;;5024694;28;20781;-57
2021/08/13 04:53:11;;;;;;;10.90;7.70;;;;;;;;;;5033574;28;20201;-57
2021/08/13 04:55:36;;;;;;;9.93;7.45;;;;;;;;;;5019717;28;20222;-57
2021/08/13 04:58:03;;;;;;;10.73;7.43;;;;;;;;;;5026153;28;20744;-56
2021/08/13 05:00:28;;;;;;;12.20;8.07;;;;;;;;;;5006044;28;20221;-57
2021/08/13 05:02:53;;;;;;;10.20;8.25;;;;;;;;;;5027922;28;20267;-56
2021/08/13 05:05:18;;;;;;;15.80;8.13;;;;;;;;;;5022250;28;20211;-56
2021/08/13 05:07:44;;;;;;;8.68;7.70;;;;;;;;;;5024902;28;20303;-57
2021/08/13 05:10:13;;;;;;;9.15;8.15;;;;;;;;;;5042043;28;20244;-57
2021/08/13 05:12:38;;;;;;;11.25;7.85;;;;;;;;;;5017873;28;20159;-57
2021/08/13 05:15:04;;;;;;;11.15;7.78;;;;;;;;;;5023089;28;20205;-57
2021/08/13 05:17:29;;;;;;;11.93;8.25;;;;;;;;;;5018956;28;20253;-57
2021/08/13 05:19:55;;;;;;;14.10;7.82;;;;;;;;;;5014547;28;20231;-57
2021/08/13 05:22:22;;;;;;;12.60;8.02;;;;;;;;;;5028368;28;20189;-57
2021/08/13 05:24:47;;;;;;;15.20;8.27;;;;;;;;;;5019786;28;20222;-57
2021/08/13 05:27:13;;;;;;;9.50;8.50;;;;;;;;;;4998571;28;20590;-57
2021/08/13 05:29:38;;;;;;;12.95;8.10;;;;;;;;;;5011276;28;20218;-57
2021/08/13 05:32:03;;;;;;;9.82;7.72;;;;;;;;;;5023321;28;20186;-57
2021/08/13 05:34:28;;;;;;;10.75;8.00;;;;;;;;;;5023062;28;20203;-57
2021/08/13 05:36:54;;;;;;;12.10;7.57;;;;;;;;;;5026625;28;20225;-57
2021/08/13 05:39:19;;;;;;;14.75;8.00;;;;;;;;;;5025712;28;20211;-57
2021/08/13 05:41:44;;;;;;;18.45;8.15;;;;;;;;;;5027569;28;20186;-57
2021/08/13 05:44:09;;;;;;;16.60;7.30;;;;;;;;;;5026758;28;20206;-57
2021/08/13 05:46:34;;;;;;;11.80;7.65;;;;;;;;;;4997796;28;20559;-57
2021/08/13 05:49:00;;;;;;;8.48;7.32;;;;;;;;;;5027435;28;20221;-57
2021/08/13 05:51:26;;;;;;;12.52;7.80;;;;;;;;;;5013266;28;20175;-57
2021/08/13 05:53:54;;;;;;;12.70;7.32;;;;;;;;;;5022824;28;20233;-57
2021/08/13 05:56:19;;;;;;;11.73;7.22;;;;;;;;;;5028942;28;20182;-57
2021/08/13 05:58:44;;;;;;;10.32;7.43;;;;;;;;;;5027071;28;20213;-57
2021/08/13 06:01:09;;;;;;;8.30;7.13;;;;;;;;;;5014329;28;20215;-56
2021/08/13 06:03:35;;;;;;;10.20;7.50;;;;;;;;;;5017055;28;20730;-57
2021/08/13 06:06:00;;;;;;;9.63;7.85;;;;;;;;;;5015631;28;20199;-57
2021/08/13 06:08:25;;;;;;;13.13;8.18;;;;;;;;;;5025026;28;20175;-57
2021/08/13 06:10:50;;;;;;;14.52;8.63;;;;;;;;;;5035392;28;20718;-57
2021/08/13 06:13:18;;;;;;;12.55;9.10;;;;;;;;;;5011069;28;20801;-57
2021/08/13 06:15:44;;;;;;;11.63;8.40;;;;;;;;;;5014626;28;20206;-57
2021/08/13 06:18:09;;;;;;;10.10;8.20;;;;;;;;;;5008474;28;20233;-57
2021/08/13 06:20:34;;;;;;;9.23;8.32;;;;;;;;;;5026331;28;20279;-57
2021/08/13 06:23:00;;;;;;;10.57;8.48;;;;;;;;;;5005768;28;20194;-56
2021/08/13 06:25:25;;;;;;;9.63;8.55;;;;;;;;;;5034488;28;20725;-57
2021/08/13 06:27:50;;;;;;;8.95;7.82;;;;;;;;;;5010702;28;20182;-57
2021/08/13 06:30:19;;;;;;;10.57;8.02;;;;;;;;;;5024121;28;20198;-57
2021/08/13 06:32:44;;;;;;;11.93;8.07;;;;;;;;;;5023439;28;20195;-57
2021/08/13 06:35:10;;;;;;;12.38;8.02;;;;;;;;;;5021125;28;20634;-57
2021/08/13 06:37:46;;;;;;;13.68;8.05;;;;;;;;;;5021286;28;20202;-57
2021/08/13 06:40:12;;;;;;;10.00;8.07;;;;;;;;;;5029129;28;20211;-57
2021/08/13 06:42:37;;;;;;;10.00;8.07;;;;;;;;;;5030971;28;20258;-57
2021/08/13 06:45:03;;;;;;;9.38;7.80;;;;;;;;;;5028310;28;20214;-57
2021/08/13 06:47:28;;;;;;;10.60;7.20;;;;;;;;;;5011537;28;20190;-57
2021/08/13 06:49:53;;;;;;;8.60;6.50;;;;;;;;;;5010147;28;20182;-57
2021/08/13 06:52:18;;;;;;;12.05;6.30;;;;;;;;;;5027940;28;20276;-57
2021/08/13 06:54:43;;;;;;;8.43;6.57;;;;;;;;;;5033690;28;20293;-57
2021/08/13 06:57:08;;;;;;;17.20;6.57;;;;;;;;;;5019118;28;20887;-58
2021/08/13 06:59:34;;;;;;;6.97;6.28;;;;;;;;;;5027855;28;20464;-58
2021/08/13 07:01:59;;;;;;;7.73;6.20;;;;;;;;;;5010208;28;20187;-58
2021/08/13 07:04:24;;;;;;;7.30;6.53;;;;;;;;;;5017882;28;20473;-57
2021/08/13 07:06:49;;;;;;;7.63;6.93;;;;;;;;;;5009359;28;20443;-58
2021/08/13 07:09:14;;;;;;;7.60;6.90;;;;;;;;;;5034871;28;20455;-58
2021/08/13 07:11:39;;;;;;;8.30;6.77;;;;;;;;;;5034390;28;20486;-58
2021/08/13 07:14:05;;;;;;;8.93;8.00;;;;;;;;;;5021693;28;20644;-58
2021/08/13 07:16:30;;;;;;;10.17;7.07;;;;;;;;;;5022059;28;20171;-58
2021/08/13 07:18:55;;;;;;;8.40;7.60;;;;;;;;;;5012470;28;20196;-59
2021/08/13 07:21:20;;;;;;;8.57;7.77;;;;;;;;;;5011635;28;20561;-58
2021/08/13 07:23:45;;;;;;;8.27;7.57;;;;;;;;;;5024000;28;20186;-59
2021/08/13 07:26:10;;;;;;;10.97;8.07;;;;;;;;;;5023147;28;20657;-58
2021/08/13 07:28:36;;;;;;;9.27;8.50;;;;;;;;;;5017642;28;20194;-58
2021/08/13 07:31:01;;;;;;;9.10;8.20;;;;;;;;;;5023113;28;20668;-59
2021/08/13 07:33:26;;;;;;;9.60;8.70;;;;;;;;;;5027665;28;20265;-59
2021/08/13 07:35:51;;;;;;;9.57;8.63;;;;;;;;;;4993537;28;20191;-58
2021/08/13 07:38:16;;;;;;;10.00;9.10;;;;;;;;;;5024724;28;20276;-59
2021/08/13 07:40:42;;;;;;;9.50;8.70;;;;;;;;;;5027690;28;20210;-59
2021/08/13 07:43:08;;;;;;;9.97;8.57;;;;;;;;;;5035996;28;20196;-59
2021/08/13 07:45:33;;;;;;;8.07;7.28;;;;;;;;;;5008734;28;20440;-58
2021/08/13 07:47:59;;;;;;;9.35;8.02;;;;;;;;;;5017179;28;20182;-58
2021/08/13 07:50:25;;;;;;;8.30;7.60;;;;;;;;;;5020434;28;20230;-58
2021/08/13 07:52:51;;;;;;;7.43;6.85;;;;;;;;;;5015601;28;20182;-58
2021/08/13 07:55:16;;;;;;;7.53;6.80;;;;;;;;;;5016516;28;20194;-58
2021/08/13 07:57:41;;;;;;;7.80;7.10;;;;;;;;;;4998485;28;20422;-57
2021/08/13 08:00:06;;;;;;;7.60;6.80;;;;;;;;;;5001611;28;20488;-57
2021/08/13 08:02:32;;;;;;;9.82;7.35;;;;;;;;;;5025479;28;20185;-57
2021/08/13 08:04:57;;;;;;;7.30;6.60;;;;;;;;;;5015972;28;20203;-57
2021/08/13 08:07:22;;;;;;;8.40;6.70;;;;;;;;;;5020950;28;20416;-57
2021/08/13 08:09:47;;;;;;;6.83;6.13;;;;;;;;;;5026023;28;20273;-57
2021/08/13 08:12:12;;;;;;;8.10;7.30;;;;;;;;;;5034434;28;20425;-57
2021/08/13 08:14:38;;;;;;;7.87;6.57;;;;;;;;;;5026613;28;20480;-58
2021/08/13 08:17:03;;;;;;;7.43;6.72;;;;;;;;;;5026623;28;20181;-57
2021/08/13 08:19:28;;;;;;;7.70;7.00;;;;;;;;;;5030248;28;20297;-58
2021/08/13 08:21:54;;;;;;;7.05;6.40;;;;;;;;;;5025519;28;20264;-57
2021/08/13 08:24:19;;;;;;;6.97;6.27;;;;;;;;;;5031522;23;20234;-57
2021/08/13 08:26:44;;;;;;;6.90;6.10;;;;;;;;;;4989445;28;20418;-57
2021/08/13 08:29:09;;;;;;;6.93;6.33;;;;;;;;;;4984371;28;20564;-58
2021/08/13 08:31:34;;;;;;;6.47;5.93;;;;;;;;;;4973149;28;20818;-57
2021/08/13 08:34:00;;;;;;;10.30;6.37;;;;;;;;;;4987989;28;21107;-57
2021/08/13 08:36:25;;;;;;;7.28;6.53;;;;;;;;;;5000665;28;20178;-57
2021/08/13 08:38:50;;;;;;;7.07;6.47;;;;;;;;;;5006318;28;20185;-57
2021/08/13 08:41:15;;;;;;;7.37;6.57;;;;;;;;;;5012201;28;20293;-57
2021/08/13 08:43:40;;;;;;;7.67;6.40;;;;;;;;;;5007293;28;20934;-57
2021/08/13 08:46:06;;;;;;;7.33;6.57;;;;;;;;;;5000030;28;20305;-57
2021/08/13 08:48:35;;;;;;;7.32;6.57;;;;;;;;;;5004849;28;20457;-57
2021/08/13 08:51:01;;;;;;;8.05;5.82;;;;;;;;;;4997991;28;20762;-57
2021/08/13 08:53:27;;;;;;;6.63;6.03;;;;;;;;;;4990921;28;20743;-57
2021/08/13 08:55:52;;;;;;;6.28;5.68;;;;;;;;;;5014678;28;20217;-57
2021/08/13 08:58:21;;;;;;;6.93;5.82;;;;;;;;;;4987366;28;20210;-57
2021/08/13 09:00:47;;;;;;;7.60;5.57;;;;;;;;;;5005255;28;20199;-57
2021/08/13 09:03:13;;;;;;;8.18;6.22;;;;;;;;;;4995815;28;20831;-58
2021/08/13 09:05:38;;;;;;;8.20;5.80;;;;;;;;;;4999993;28;20315;-58
2021/08/13 09:08:03;;;;;;;6.47;5.88;;;;;;;;;;4995459;28;20180;-58
2021/08/13 09:10:29;;;;;;;8.00;5.95;;;;;;;;;;5009507;28;20197;-58
2021/08/13 09:12:54;;;;;;;8.23;5.63;;;;;;;;;;5004785;28;20180;-58
2021/08/13 09:15:30;;;;;;;9.88;6.15;;;;;;;;;;4992905;28;20540;-58
2021/08/13 09:18:11;;;;;;;6.22;5.70;;;;;;;;;;5002817;28;20341;-58
2021/08/13 09:20:37;;;;;;;8.05;6.60;;;;;;;;;;5002969;28;20207;-58
2021/08/13 09:23:02;;;;;;;10.20;6.53;;;;;;;;;;4994517;28;20253;-58
2021/08/13 09:25:27;;;;;;;7.35;5.95;;;;;;;;;;5011678;28;20884;-58
2021/08/13 09:27:56;;;;;;;8.07;5.95;;;;;;;;;;4996397;28;20187;-58
2021/08/13 09:30:21;;;;;;;6.35;5.60;;;;;;;;;;4993472;28;20199;-58
2021/08/13 09:33:00;;;;;;;7.95;6.20;;;;;;;;;;5006557;28;20651;-58
2021/08/13 09:35:44;;;;;;;6.93;5.80;;;;;;;;;;5005307;28;20737;-58
2021/08/13 09:38:10;;;;;;;6.60;5.72;;;;;;;;;;5003074;28;20557;-58
2021/08/13 09:40:40;;;;;;;7.45;6.03;;;;;;;;;;5012099;28;20195;-58
2021/08/13 09:43:05;;;;;;;7.10;5.60;;;;;;;;;;5011286;28;20191;-58
2021/08/13 09:45:30;;;;;;;6.25;5.50;;;;;;;;;;5005516;28;20200;-58
2021/08/13 09:47:55;;;;;;;6.05;5.45;;;;;;;;;;4994678;28;20214;-58
2021/08/13 09:50:32;;;;;;;6.20;5.63;;;;;;;;;;5000278;28;20179;-58
2021/08/13 09:53:13;;;;;;;11.00;5.95;;;;;;;;;;4988320;28;20208;-58
2021/08/13 09:55:43;;;;;;;5.97;5.35;;;;;;;;;;5005237;28;20222;-58
2021/08/13 09:58:09;;;;;;;7.00;5.95;;;;;;;;;;5012644;28;20182;-58
2021/08/13 10:00:46;;;;;;;7.97;5.65;;;;;;;;;;4999937;28;20203;-58
2021/08/13 10:03:11;;;;;;;7.53;5.70;;;;;;;;;;5000305;28;20174;-58
2021/08/13 10:05:37;;;;;;;9.35;5.40;;;;;;;;;;5006176;28;20219;-58
2021/08/13 10:08:04;;;;;;;6.50;5.90;;;;;;;;;;5011715;28;20671;-59
2021/08/13 10:10:34;;;;;;;12.38;6.30;;;;;;;;;;5007200;28;20175;-58
2021/08/13 10:12:59;;;;;;;9.23;6.28;;;;;;;;;;5004221;28;20191;-58
2021/08/13 10:15:32;;;;;;;7.45;5.65;;;;;;;;;;5001576;28;20214;-58
2021/08/13 10:17:58;;;;;;;7.30;5.85;;;;;;;;;;4989521;28;20187;-58
2021/08/13 10:20:24;;;;;;;6.25;5.65;;;;;;;;;;5006552;28;20290;-58
2021/08/13 10:22:49;;;;;;;5.95;5.38;;;;;;;;;;5006482;28;20187;-58
2021/08/13 10:25:15;;;;;;;8.02;6.13;;;;;;;;;;5007592;28;20210;-58
2021/08/13 10:27:40;;;;;;;11.05;5.93;;;;;;;;;;5013584;28;20184;-59
2021/08/13 10:30:05;;;;;;;6.45;5.85;;;;;;;;;;4995150;28;20187;-58
2021/08/13 10:32:31;;;;;;;6.53;5.80;;;;;;;;;;4996577;28;20195;-58
2021/08/13 10:34:56;;;;;;;10.02;6.40;;;;;;;;;;4995774;28;20219;-58
2021/08/13 10:37:24;;;;;;;6.78;5.70;;;;;;;;;;4996992;28;20797;-58
2021/08/13 10:39:50;;;;;;;7.32;5.85;;;;;;;;;;5004397;28;20670;-58
2021/08/13 10:42:17;;;;;;;6.40;5.80;;;;;;;;;;5007916;28;20273;-58
2021/08/13 10:44:48;;;;;;;10.02;6.55;;;;;;;;;;5009049;28;20277;-58
2021/08/13 10:47:14;;;;;;;9.70;6.18;;;;;;;;;;5010280;28;20237;-58
2021/08/13 10:49:44;;;;;;;6.93;6.32;;;;;;;;;;4995303;28;20184;-58
2021/08/13 10:52:09;;;;;;;7.72;6.57;;;;;;;;;;5007650;28;20643;-58
2021/08/13 10:54:40;;;;;;;8.53;6.33;;;;;;;;;;4989811;28;20265;-58
2021/08/13 10:57:06;;;;;;;7.47;6.72;;;;;;;;;;5018624;28;20430;-58
2021/08/13 10:59:40;;;;;;;8.05;6.13;;;;;;;;;;5003651;28;20187;-58
2021/08/13 11:02:18;;;;;;;8.70;6.43;;;;;;;;;;4994435;28;20175;-58
2021/08/13 11:04:44;;;;;;;7.47;6.28;;;;;;;;;;4997243;28;20204;-58
2021/08/13 11:07:10;;;;;;;7.30;5.90;;;;;;;;;;4999513;28;20171;-58
2021/08/13 11:09:35;;;;;;;8.07;6.68;;;;;;;;;;5007977;28;20688;-58
2021/08/13 11:12:21;;;;;;;6.63;6.03;;;;;;;;;;5018335;28;20187;-58
2021/08/13 11:14:53;;;;;;;9.68;6.60;;;;;;;;;;5004124;28;20619;-58
2021/08/13 11:17:30;;;;;;;11.38;7.15;;;;;;;;;;5005192;28;20184;-58
2021/08/13 11:19:57;;;;;;;11.02;7.15;;;;;;;;;;5005925;28;20261;-58
2021/08/13 11:22:26;;;;;;;7.57;6.57;;;;;;;;;;5004132;28;20299;-58
2021/08/13 11:24:52;;;;;;;9.02;6.57;;;;;;;;;;4991955;28;20298;-58
2021/08/13 11:27:18;;;;;;;8.93;6.13;;;;;;;;;;5008964;28;20262;-58
2021/08/13 11:29:43;;;;;;;6.97;6.38;;;;;;;;;;5005744;28;20271;-58
2021/08/13 11:32:14;;;;;;;11.90;7.88;;;;;;;;;;4992207;28;20622;-58
2021/08/13 11:34:52;;;;;;;9.30;8.02;;;;;;;;;;4997101;28;20646;-58
2021/08/13 11:37:27;;;;;;;9.05;8.23;;;;;;;;;;5002566;28;20212;-58
2021/08/13 11:39:52;;;;;;;9.70;8.05;;;;;;;;;;5002379;28;20221;-58
2021/08/13 11:42:20;;;;;;;9.38;7.00;;;;;;;;;;4997521;28;20662;-58
2021/08/13 11:44:47;;;;;;;9.48;7.32;;;;;;;;;;5007949;28;20262;-59
2021/08/13 11:47:15;;;;;;;8.95;7.65;;;;;;;;;;5000486;28;20186;-58
2021/08/13 11:49:41;;;;;;;10.05;8.40;;;;;;;;;;4996858;28;20215;-58
2021/08/13 11:52:07;;;;;;;8.40;7.60;;;;;;;;;;4989010;28;20599;-57
2021/08/13 11:54:35;;;;;;;9.90;7.97;;;;;;;;;;4990564;28;20203;-58
2021/08/13 11:57:14;;;;;;;9.80;8.07;;;;;;;;;;5010964;28;20717;-58
2021/08/13 11:59:39;;;;;;;10.02;8.18;;;;;;;;;;5005511;28;20219;-57
2021/08/13 12:02:04;;;;;;;12.23;7.63;;;;;;;;;;5005682;28;20187;-57
2021/08/13 12:04:30;;;;;;;9.32;7.40;;;;;;;;;;5005460;28;20223;-58
2021/08/13 12:07:11;;;;;;;12.33;7.83;;;;;;;;;;4997530;28;20195;-57
2021/08/13 12:09:37;;;;;;;8.70;7.68;;;;;;;;;;5008918;28;20433;-57
2021/08/13 12:12:04;;;;;;;10.82;7.20;;;;;;;;;;5007251;28;20179;-58
2021/08/13 12:14:29;;;;;;;7.90;7.10;;;;;;;;;;4996607;28;20242;-58
2021/08/13 12:16:55;;;;;;;10.40;6.97;;;;;;;;;;5000917;28;20203;-58
2021/08/13 12:19:23;;;;;;;7.78;7.07;;;;;;;;;;5005470;28;20686;-58
2021/08/13 12:21:56;;;;;;;7.90;7.10;;;;;;;;;;5000927;28;20184;-57
2021/08/13 12:24:31;;;;;;;9.98;7.72;;;;;;;;;;4994360;28;20636;-58
2021/08/13 12:26:57;;;;;;;8.77;7.88;;;;;;;;;;5015668;28;20193;-58
2021/08/13 12:29:23;;;;;;;8.52;7.40;;;;;;;;;;4994540;28;20183;-58
2021/08/13 12:31:53;;;;;;;7.78;7.00;;;;;;;;;;4994517;28;20219;-58
2021/08/13 12:34:25;;;;;;;8.38;7.00;;;;;;;;;;4994513;28;20306;-58
2021/08/13 12:37:03;;;;;;;9.60;7.40;;;;;;;;;;4991099;28;20262;-58
2021/08/13 12:39:29;;;;;;;9.82;6.85;;;;;;;;;;5006366;28;20577;-57
2021/08/13 12:41:54;;;;;;;9.40;7.95;;;;;;;;;;5009880;28;20187;-57
2021/08/13 12:44:19;;;;;;;9.38;7.47;;;;;;;;;;4993088;28;20196;-57
2021/08/13 12:46:45;;;;;;;9.17;7.33;;;;;;;;;;5005312;28;20192;-57
2021/08/13 12:49:12;;;;;;;9.63;8.05;;;;;;;;;;4991646;28;20439;-58
2021/08/13 12:51:37;;;;;;;7.97;7.28;;;;;;;;;;4995951;28;20180;-57
2021/08/13 12:54:02;;;;;;;7.70;7.00;;;;;;;;;;4997996;28;20210;-57
2021/08/13 12:56:27;;;;;;;8.68;7.47;;;;;;;;;;5000048;28;20226;-57
2021/08/13 12:58:52;;;;;;;11.17;7.63;;;;;;;;;;5013507;28;20702;-57
2021/08/13 13:01:25;;;;;;;13.33;7.50;;;;;;;;;;4992164;28;20477;-57
2021/08/13 13:04:06;;;;;;;8.23;7.13;;;;;;;;;;5002677;28;20425;-58
2021/08/13 13:06:32;;;;;;;11.40;7.55;;;;;;;;;;5004172;28;20185;-57
2021/08/13 13:08:57;;;;;;;8.38;7.57;;;;;;;;;;4992050;28;20266;-57
2021/08/13 13:11:24;;;;;;;8.43;7.65;;;;;;;;;;4985637;28;20180;-57
2021/08/13 13:13:50;;;;;;;11.90;8.15;;;;;;;;;;4977962;28;20180;-58
2021/08/13 13:16:15;;;;;;;8.40;7.47;;;;;;;;;;4993623;28;20212;-57
2021/08/13 13:18:40;;;;;;;8.20;7.40;;;;;;;;;;5003046;28;20188;-58
2021/08/13 13:21:18;;;;;;;11.30;7.77;;;;;;;;;;4992484;28;20216;-58
2021/08/13 13:23:43;;;;;;;9.40;7.88;;;;;;;;;;5002293;28;20418;-57
2021/08/13 13:26:12;;;;;;;7.87;7.17;;;;;;;;;;5007327;28;20762;-57
2021/08/13 13:28:37;;;;;;;9.40;7.07;;;;;;;;;;5014604;28;20438;-58
2021/08/13 13:31:11;;;;;;;9.10;7.28;;;;;;;;;;5005225;28;20249;-57
2021/08/13 13:33:37;;;;;;;7.63;6.93;;;;;;;;;;4994970;28;20198;-58
2021/08/13 13:36:03;;;;;;;9.05;6.63;;;;;;;;;;4995564;28;20203;-57
2021/08/13 13:38:29;;;;;;;7.72;7.00;;;;;;;;;;5005020;28;20187;-57
2021/08/13 13:40:55;;;;;;;7.43;6.72;;;;;;;;;;4999030;28;20261;-58
2021/08/13 13:43:20;;;;;;;8.10;6.80;;;;;;;;;;5002406;28;20267;-58
2021/08/13 13:45:45;;;;;;;7.82;7.03;;;;;;;;;;5003129;28;20245;-58
2021/08/13 13:48:11;;;;;;;7.67;6.90;;;;;;;;;;4993044;28;20187;-58
2021/08/13 13:50:36;;;;;;;10.20;6.80;;;;;;;;;;4981473;28;20426;-58
2021/08/13 13:53:01;;;;;;;8.07;6.88;;;;;;;;;;5009159;28;20191;-57
2021/08/13 13:55:27;;;;;;;13.43;7.03;;;;;;;;;;5005709;28;20214;-58
2021/08/13 13:57:55;;;;;;;8.73;6.80;;;;;;;;;;5013793;28;20183;-58
2021/08/13 14:00:20;;;;;;;8.88;6.90;;;;;;;;;;5016280;28;20186;-57
2021/08/13 14:02:46;;;;;;;10.40;7.03;;;;;;;;;;4996511;28;20190;-57
2021/08/13 14:05:12;;;;;;;11.45;7.03;;;;;;;;;;4999893;28;20466;-57
2021/08/13 14:07:38;;;;;;;8.38;6.68;;;;;;;;;;4978129;28;20206;-58
2021/08/13 14:10:05;;;;;;;8.05;6.85;;;;;;;;;;4997277;28;20620;-58
2021/08/13 14:12:31;;;;;;;9.32;6.80;;;;;;;;;;4999914;28;20217;-58
2021/08/13 14:14:56;;;;;;;7.30;6.57;;;;;;;;;;5006407;28;20835;-57
2021/08/13 14:17:21;;;;;;;7.23;6.53;;;;;;;;;;5003968;28;20565;-57
2021/08/13 14:19:46;;;;;;;7.03;6.33;;;;;;;;;;5007217;28;20458;-57
2021/08/13 14:22:12;;;;;;;7.33;6.63;;;;;;;;;;5007959;28;20533;-58
2021/08/13 14:24:37;;;;;;;8.03;6.17;;;;;;;;;;5028958;22;20215;-58
2021/08/13 14:27:02;;;;;;;7.30;6.25;;;;;;;;;;5020857;28;20521;-58
2021/08/13 14:29:27;;;;;;;7.05;6.10;;;;;;;;;;5000806;28;20180;-59
2021/08/13 14:31:54;;;;;;;6.77;6.17;;;;;;;;;;5010701;28;20724;-58
2021/08/13 14:34:19;;;;;;;7.00;6.30;;;;;;;;;;5013874;28;20508;-57